Time;durP1;ratioP1;P1;durP2;ratioP2;P2;SDS_P1;SDS_P2;PMS_P1;PMS_P2;Temp;Humidity;BMP_temperature;BMP_pressure;BME280_temperature;BME280_humidity;BME280_pressure;Samples;Min_cycle;Max_cycle;Signal;HPM_P1;HPM_P2
2022/05/30 00:04:08;;;;;;;2.83;1.80;;;10.10;99.90;;;;;;10469708;28;20223;-72
2022/05/30 00:09:13;;;;;;;2.40;1.60;;;10.00;99.90;;;;;;10473752;28;20215;-71
2022/05/30 00:14:14;;;;;;;2.97;2.17;;;10.00;99.90;;;;;;10464929;28;20224;-70
2022/05/30 00:19:14;;;;;;;4.57;2.00;;;9.90;99.90;;;;;;10462548;28;20220;-70
2022/05/30 00:24:15;;;;;;;2.10;1.70;;;9.90;99.90;;;;;;10475943;28;20227;-72
2022/05/30 00:29:15;;;;;;;1.77;1.67;;;9.80;99.90;;;;;;10476149;28;20239;-71
2022/05/30 00:34:20;;;;;;;2.87;1.97;;;9.70;99.90;;;;;;10461884;28;20231;-72
2022/05/30 00:39:20;;;;;;;2.00;1.80;;;9.60;99.90;;;;;;10468218;28;20465;-71
2022/05/30 00:44:21;;;;;;;2.63;2.10;;;9.60;99.90;;;;;;10462281;28;20231;-71
2022/05/30 00:49:22;;;;;;;1.73;1.60;;;9.50;99.90;;;;;;10430366;28;1126336;-71
2022/05/30 00:54:29;;;;;;;2.03;1.83;;;9.50;99.90;;;;;;10472689;28;20284;-72
2022/05/30 00:59:30;;;;;;;2.23;1.90;;;9.50;99.90;;;;;;10475386;28;20247;-71
2022/05/30 01:09:50;;;;;;;2.83;2.00;;;9.40;99.90;;;;;;10464831;28;20216;-72
2022/05/30 01:14:51;;;;;;;1.77;1.67;;;9.40;99.90;;;;;;10463548;28;20215;-72
2022/05/30 01:20:11;;;;;;;3.67;2.27;;;9.30;99.90;;;;;;10488366;28;20237;-71
2022/05/30 01:25:18;;;;;;;2.67;2.17;;;9.30;99.90;;;;;;10458681;28;20231;-71
2022/05/30 01:30:19;;;;;;;2.40;2.20;;;9.10;99.90;;;;;;10474610;28;20643;-71
2022/05/30 01:35:43;;;;;;;2.43;2.23;;;9.00;99.90;;;;;;10470606;28;20226;-72
2022/05/30 01:40:44;;;;;;;2.87;2.47;;;9.00;99.90;;;;;;10470258;28;20607;-71
2022/05/30 01:45:45;;;;;;;2.77;2.00;;;8.90;99.90;;;;;;10473845;28;20311;-71
2022/05/30 01:50:47;;;;;;;2.73;2.27;;;8.90;99.90;;;;;;10480800;28;20564;-70
2022/05/30 01:55:47;;;;;;;2.30;2.10;;;8.80;99.90;;;;;;10468091;28;20258;-70
2022/05/30 02:00:48;;;;;;;2.30;2.10;;;8.80;99.90;;;;;;10463738;28;20234;-73
2022/05/30 02:05:49;;;;;;;2.10;1.90;;;8.80;99.90;;;;;;10469145;28;20211;-70
2022/05/30 02:10:49;;;;;;;2.97;2.07;;;8.80;99.90;;;;;;10470169;28;20294;-72
2022/05/30 02:21:09;;;;;;;5.53;2.83;;;8.80;99.90;;;;;;10461314;28;20220;-71
2022/05/30 02:26:10;;;;;;;2.93;2.20;;;8.80;99.90;;;;;;10460958;28;20227;-71
2022/05/30 02:31:10;;;;;;;2.23;2.00;;;8.90;99.90;;;;;;10474427;28;20234;-71
2022/05/30 02:41:30;;;;;;;2.80;2.10;;;9.00;99.90;;;;;;10477987;28;20222;-71
2022/05/30 02:46:31;;;;;;;2.17;1.97;;;8.90;99.90;;;;;;10465599;28;20219;-70
2022/05/30 02:51:32;;;;;;;2.07;1.90;;;8.80;99.90;;;;;;10458114;28;20721;-71
2022/05/30 02:56:33;;;;;;;2.20;1.73;;;8.90;99.90;;;;;;10465573;28;20279;-71
2022/05/30 03:01:34;;;;;;;2.20;2.00;;;9.00;99.90;;;;;;10468488;28;20599;-71
2022/05/30 03:06:35;;;;;;;3.10;2.33;;;9.00;99.90;;;;;;10467847;28;20226;-71
2022/05/30 03:11:36;;;;;;;3.30;2.30;;;9.00;99.90;;;;;;10470114;28;20310;-72
2022/05/30 03:16:37;;;;;;;4.10;2.73;;;8.90;99.90;;;;;;10461837;28;20309;-71
2022/05/30 03:21:37;;;;;;;5.37;3.40;;;8.90;99.90;;;;;;10456445;28;20220;-70
2022/05/30 03:26:41;;;;;;;6.50;3.60;;;8.90;99.90;;;;;;10472569;28;20636;-71
2022/05/30 03:31:41;;;;;;;4.83;2.70;;;8.90;99.90;;;;;;10452079;28;20227;-69
2022/05/30 03:36:42;;;;;;;5.47;2.87;;;8.90;99.90;;;;;;10468693;28;20228;-71
2022/05/30 03:41:43;;;;;;;2.50;2.30;;;8.70;99.90;;;;;;10474114;28;20251;-70
2022/05/30 03:46:43;;;;;;;4.73;2.40;;;8.70;99.90;;;;;;10474974;28;20283;-70
2022/05/30 03:51:47;;;;;;;5.23;2.67;;;8.70;99.90;;;;;;10470715;28;20235;-71
2022/05/30 03:56:49;;;;;;;3.40;2.30;;;8.90;99.90;;;;;;10482296;28;20284;-71
2022/05/30 04:01:50;;;;;;;2.40;2.17;;;9.00;99.90;;;;;;10455680;28;20224;-71
2022/05/30 04:06:51;;;;;;;4.20;2.53;;;9.00;99.90;;;;;;10465687;28;20354;-70
2022/05/30 04:11:51;;;;;;;4.17;2.87;;;9.20;99.90;;;;;;10473436;28;20223;-71
2022/05/30 04:16:52;;;;;;;6.63;3.60;;;9.40;99.90;;;;;;10465613;28;20357;-71
2022/05/30 04:21:52;;;;;;;6.23;3.80;;;9.50;99.90;;;;;;10481098;28;20227;-70
2022/05/30 04:26:53;;;;;;;5.83;3.27;;;9.60;99.90;;;;;;10470137;28;20234;-70
2022/05/30 04:31:54;;;;;;;4.33;2.53;;;9.60;99.90;;;;;;10470173;28;20277;-71
2022/05/30 04:36:54;;;;;;;4.47;2.63;;;9.50;99.90;;;;;;10487205;28;20224;-70
2022/05/30 04:41:55;;;;;;;4.73;2.40;;;9.80;99.90;;;;;;10472380;28;20262;-70
2022/05/30 04:46:57;;;;;;;4.33;2.40;;;10.70;99.90;;;;;;10453628;28;20273;-71
2022/05/30 04:51:58;;;;;;;4.90;3.00;;;10.50;99.90;;;;;;10473563;28;20270;-70
2022/05/30 04:56:59;;;;;;;3.17;2.27;;;10.20;99.90;;;;;;10479185;28;20230;-72
2022/05/30 05:01:59;;;;;;;3.03;2.00;;;11.10;99.90;;;;;;10475472;28;20232;-71
2022/05/30 05:07:03;;;;;;;4.93;2.27;;;13.60;99.90;;;;;;10462404;28;20650;-69
2022/05/30 05:12:04;;;;;;;5.60;2.37;;;15.60;99.90;;;;;;10473697;28;20227;-69
2022/05/30 05:17:06;;;;;;;6.67;2.97;;;15.10;99.90;;;;;;10461640;28;20280;-70
2022/05/30 05:22:11;;;;;;;6.03;2.80;;;14.10;99.90;;;;;;10442490;28;20230;-68
2022/05/30 05:27:15;;;;;;;3.53;2.53;;;15.80;99.90;;;;;;10464352;28;20225;-69
2022/05/30 05:32:16;;;;;;;7.17;3.20;;;17.20;99.90;;;;;;10473308;28;20241;-70
2022/05/30 05:37:17;;;;;;;3.07;2.07;;;17.70;98.80;;;;;;10467731;28;20230;-68
2022/05/30 05:42:18;;;;;;;4.70;1.70;;;18.70;95.00;;;;;;10473519;28;20702;-68
2022/05/30 05:47:18;;;;;;;2.20;1.63;;;18.70;92.10;;;;;;10476535;28;20234;-69
2022/05/30 05:52:20;;;;;;;2.90;1.77;;;19.40;90.70;;;;;;10475366;28;20251;-69
2022/05/30 05:57:21;;;;;;;6.00;2.50;;;20.30;84.50;;;;;;10465951;28;20304;-70
2022/05/30 06:02:23;;;;;;;4.97;2.80;;;21.00;79.10;;;;;;10461922;28;20250;-69
2022/05/30 06:07:24;;;;;;;4.33;2.40;;;21.80;72.80;;;;;;10457683;28;20251;-69
2022/05/30 06:12:25;;;;;;;4.60;2.70;;;22.00;68.20;;;;;;10470594;28;20226;-69
2022/05/30 06:17:26;;;;;;;3.20;1.83;;;21.20;68.80;;;;;;10471882;28;20737;-69
2022/05/30 06:22:26;;;;;;;3.87;2.10;;;20.80;68.80;;;;;;10462426;28;20224;-69
2022/05/30 06:27:27;;;;;;;2.27;1.47;;;21.50;68.60;;;;;;10473975;28;20213;-69
2022/05/30 06:32:28;;;;;;;3.27;1.57;;;21.10;67.20;;;;;;10475024;28;20228;-70
2022/05/30 06:37:28;;;;;;;3.17;1.43;;;20.70;69.90;;;;;;10465596;28;20257;-70
2022/05/30 06:42:29;;;;;;;5.10;1.93;;;20.70;69.60;;;;;;10462374;28;20234;-70
2022/05/30 06:47:30;;;;;;;4.77;1.87;;;21.00;67.90;;;;;;10449604;28;20224;-70
2022/05/30 06:52:31;;;;;;;2.13;1.00;;;21.50;66.30;;;;;;10455945;28;20230;-70
2022/05/30 07:02:51;;;;;;;2.13;1.13;;;22.90;61.90;;;;;;10463033;28;20226;-69
2022/05/30 07:07:56;;;;;;;2.30;1.20;;;24.30;56.20;;;;;;10461569;28;20272;-70
2022/05/30 07:12:57;;;;;;;2.93;1.83;;;23.90;55.30;;;;;;10456722;28;20379;-69
2022/05/30 07:17:58;;;;;;;3.80;1.30;;;24.00;52.90;;;;;;10473284;28;20223;-69
2022/05/30 07:22:59;;;;;;;3.20;1.23;;;25.20;52.10;;;;;;10476699;28;20231;-68
2022/05/30 07:28:00;;;;;;;4.23;1.60;;;25.20;50.20;;;;;;10470307;28;20227;-70
2022/05/30 07:33:01;;;;;;;2.35;1.25;;;25.30;49.70;;;;;;10469961;28;20894;-71
2022/05/30 07:38:03;;;;;;;4.43;1.20;;;24.90;50.20;;;;;;10462567;28;20224;-70
2022/05/30 07:43:04;;;;;;;2.80;1.30;;;24.00;50.30;;;;;;10469724;28;20227;-69
2022/05/30 07:48:05;;;;;;;3.07;1.37;;;23.60;50.50;;;;;;10463851;28;20676;-70
2022/05/30 07:53:05;;;;;;;1.50;0.90;;;23.70;52.30;;;;;;10462937;28;20216;-71
2022/05/30 07:58:06;;;;;;;3.30;1.10;;;25.00;49.30;;;;;;10465316;28;20242;-70
2022/05/30 08:03:11;;;;;;;2.70;1.10;;;25.60;48.30;;;;;;10468850;28;20223;-70
2022/05/30 08:08:12;;;;;;;3.17;1.40;;;25.40;47.10;;;;;;10463498;28;20419;-72
2022/05/30 08:13:13;;;;;;;2.83;1.20;;;24.20;49.60;;;;;;10459450;28;20686;-71
2022/05/30 08:18:15;;;;;;;2.27;1.07;;;25.10;48.80;;;;;;10490111;28;20225;-71
2022/05/30 08:23:17;;;;;;;2.13;0.93;;;24.90;48.00;;;;;;10461514;28;20778;-71
2022/05/30 08:28:18;;;;;;;6.10;1.40;;;24.90;49.20;;;;;;10455112;28;20761;-72
2022/05/30 08:33:21;;;;;;;3.17;1.20;;;26.30;45.80;;;;;;10460820;28;20272;-71
2022/05/30 08:38:22;;;;;;;1.67;0.80;;;25.60;45.20;;;;;;10470545;28;20227;-71
2022/05/30 08:43:37;;;;;;;4.70;1.27;;;24.60;47.80;;;;;;10472585;28;20226;-71
2022/05/30 08:48:46;;;;;;;4.23;1.00;;;23.50;47.60;;;;;;10467042;28;20221;-70
2022/05/30 08:54:28;;;;;;;2.33;0.97;;;23.90;47.80;;;;;;10469138;28;20743;-71
2022/05/30 08:59:56;;;;;;;3.13;1.00;;;24.20;45.20;;;;;;10466410;28;20643;-71
2022/05/30 09:05:34;;;;;;;3.07;1.10;;;24.10;47.80;;;;;;10456366;28;20223;-71
2022/05/30 09:11:00;;;;;;;3.03;1.10;;;24.30;47.00;;;;;;10471700;28;20844;-71
2022/05/30 09:16:27;;;;;;;3.80;1.00;;;23.80;47.50;;;;;;10461327;28;20784;-70
2022/05/30 09:21:31;;;;;;;3.03;1.17;;;23.60;48.10;;;;;;10458511;28;20740;-70
2022/05/30 09:26:40;;;;;;;4.93;1.07;;;23.40;48.90;;;;;;10462763;28;20226;-70
2022/05/30 09:32:28;;;;;;;2.07;1.00;;;22.90;50.30;;;;;;10462822;28;20271;-71
2022/05/30 09:37:35;;;;;;;2.17;1.00;;;21.60;52.40;;;;;;10458847;28;20242;-70
2022/05/30 09:42:49;;;;;;;3.17;0.90;;;21.40;52.80;;;;;;10467303;28;20224;-70
2022/05/30 09:48:06;;;;;;;2.80;0.70;;;21.20;53.30;;;;;;10463484;28;20219;-71
2022/05/30 09:53:07;;;;;;;2.90;0.77;;;21.20;53.70;;;;;;10477935;28;20225;-70
2022/05/30 09:58:07;;;;;;;2.63;1.10;;;22.80;51.10;;;;;;10470741;28;20219;-70
2022/05/30 10:03:32;;;;;;;2.37;0.90;;;23.50;47.50;;;;;;10450096;28;20273;-71
2022/05/30 10:08:32;;;;;;;1.93;0.90;;;24.40;47.20;;;;;;10478449;28;20315;-70
2022/05/30 10:13:39;;;;;;;3.03;1.20;;;26.00;44.30;;;;;;10459973;28;20618;-70
2022/05/30 10:18:55;;;;;;;6.87;1.27;;;26.10;43.20;;;;;;10469289;28;20662;-70
2022/05/30 10:29:59;;;;;;;2.63;1.10;;;27.40;41.80;;;;;;10467736;28;20605;-72
2022/05/30 10:36:03;;;;;;;1.37;1.00;;;29.70;37.70;;;;;;10470443;28;20226;-71
2022/05/30 10:41:09;;;;;;;3.40;1.27;;;28.20;38.50;;;;;;10424122;28;20227;-72
2022/05/30 10:46:20;;;;;;;3.70;1.20;;;26.40;41.80;;;;;;10455252;28;20238;-73
2022/05/30 10:51:35;;;;;;;2.27;1.10;;;27.30;41.20;;;;;;10468797;28;20223;-72
2022/05/30 10:56:42;;;;;;;3.40;1.40;;;29.90;36.90;;;;;;10461045;28;20711;-71
2022/05/30 11:01:46;;;;;;;3.00;1.40;;;31.50;35.50;;;;;;10459166;28;20285;-71
2022/05/30 11:06:49;;;;;;;3.90;1.40;;;31.60;34.40;;;;;;10468336;28;20273;-70
2022/05/30 11:12:09;;;;;;;3.63;1.57;;;29.10;36.10;;;;;;10469670;28;20299;-71
2022/05/30 11:17:25;;;;;;;5.43;1.53;;;27.60;38.80;;;;;;10455471;28;20246;-70
2022/05/30 11:22:46;;;;;;;3.17;1.37;;;30.10;35.10;;;;;;10476255;28;20309;-71
2022/05/30 11:28:14;;;;;;;1.80;1.40;;;27.80;36.20;;;;;;10472356;28;20220;-70
2022/05/30 11:33:48;;;;;;;3.57;1.20;;;29.40;35.00;;;;;;10464533;28;20217;-69
2022/05/30 11:39:01;;;;;;;4.30;1.30;;;29.10;34.10;;;;;;10467527;28;20225;-71
2022/05/30 11:44:42;;;;;;;4.00;1.30;;;26.60;37.50;;;;;;10469249;28;20229;-70
2022/05/30 11:50:15;;;;;;;1.87;1.30;;;25.00;40.00;;;;;;10474072;28;20221;-71
2022/05/30 11:55:24;;;;;;;1.77;0.90;;;23.70;42.00;;;;;;10468658;28;20884;-71
2022/05/30 12:00:47;;;;;;;2.00;0.93;;;22.50;42.10;;;;;;10466249;28;20679;-71
2022/05/30 12:06:12;;;;;;;2.17;0.93;;;22.30;44.00;;;;;;10460974;28;20235;-70
2022/05/30 12:11:45;;;;;;;2.70;1.07;;;22.30;43.80;;;;;;10469398;28;20235;-71
2022/05/30 12:17:15;;;;;;;3.13;0.80;;;22.40;43.90;;;;;;10452639;28;20688;-70
2022/05/30 12:27:37;;;;;;;5.80;1.27;;;23.00;45.50;;;;;;10468211;28;20658;-69
2022/05/30 12:32:39;;;;;;;2.83;1.00;;;22.60;44.90;;;;;;10474037;28;20216;-71
2022/05/30 12:37:47;;;;;;;3.33;1.30;;;22.00;48.50;;;;;;10471586;28;20312;-70
2022/05/30 12:43:10;;;;;;;2.47;0.90;;;21.70;48.80;;;;;;10471614;28;20239;-71
2022/05/30 12:48:36;;;;;;;1.47;1.30;;;21.80;48.90;;;;;;10451028;28;20228;-71
2022/05/30 12:54:07;;;;;;;4.23;1.60;;;22.00;47.00;;;;;;10462824;28;20234;-73
2022/05/30 12:59:26;;;;;;;3.10;1.50;;;22.10;46.90;;;;;;10388683;28;20219;-71
2022/05/30 13:04:35;;;;;;;6.67;1.30;;;22.20;46.70;;;;;;10469073;28;20258;-71
2022/05/30 13:09:47;;;;;;;3.00;1.30;;;21.90;46.50;;;;;;10466167;28;20218;-70
2022/05/30 13:15:00;;;;;;;4.47;1.57;;;22.10;47.30;;;;;;10459168;28;20310;-71
2022/05/30 13:20:19;;;;;;;2.53;1.30;;;22.00;47.20;;;;;;10475450;28;20745;-70
2022/05/30 13:25:41;;;;;;;3.17;1.00;;;22.50;46.80;;;;;;10465420;28;20254;-72
2022/05/30 13:30:43;;;;;;;3.38;1.23;;;23.00;45.80;;;;;;10460219;28;20420;-71
2022/05/30 13:35:44;;;;;;;4.47;1.67;;;23.00;45.90;;;;;;10467031;28;20212;-70
2022/05/30 13:40:48;;;;;;;2.93;1.10;;;22.50;45.60;;;;;;10467676;28;20756;-70
2022/05/30 13:45:49;;;;;;;2.37;1.10;;;22.40;46.20;;;;;;10476413;28;20276;-70
2022/05/30 13:50:59;;;;;;;2.70;0.80;;;22.20;46.40;;;;;;10469763;28;20231;-70
2022/05/30 13:56:04;;;;;;;2.50;0.90;;;21.70;46.50;;;;;;10462500;28;20266;-70
2022/05/30 14:01:07;;;;;;;4.00;1.30;;;21.30;47.40;;;;;;10461045;28;20354;-70
2022/05/30 14:06:31;;;;;;;1.73;1.00;;;20.80;48.50;;;;;;10457531;28;20230;-71
2022/05/30 14:11:43;;;;;;;1.77;1.10;;;20.10;50.30;;;;;;10459777;28;20212;-71
2022/05/30 14:16:59;;;;;;;2.13;0.93;;;20.00;50.40;;;;;;10464788;28;20311;-70
2022/05/30 14:22:13;;;;;;;2.60;1.07;;;20.30;49.70;;;;;;10461062;28;20636;-71
2022/05/30 14:27:20;;;;;;;3.50;0.70;;;20.60;49.30;;;;;;10474977;28;20210;-71
2022/05/30 14:32:32;;;;;;;1.43;1.03;;;20.80;48.60;;;;;;10472912;28;20220;-71
2022/05/30 14:37:49;;;;;;;2.57;1.70;;;20.50;48.50;;;;;;10456815;28;20628;-71
2022/05/30 14:42:55;;;;;;;2.40;0.97;;;20.30;48.70;;;;;;10462036;28;20223;-72
2022/05/30 14:48:06;;;;;;;3.10;1.00;;;20.40;48.30;;;;;;10461661;28;20216;-72
2022/05/30 14:53:08;;;;;;;2.57;0.93;;;20.80;48.00;;;;;;10453344;28;20307;-70
2022/05/30 14:58:13;;;;;;;4.97;1.53;;;20.90;47.00;;;;;;10454567;28;20228;-71
2022/05/30 15:08:33;;;;;;;1.47;0.90;;;20.90;46.70;;;;;;10462064;28;20682;-70
2022/05/30 15:13:34;;;;;;;1.63;1.10;;;20.80;47.40;;;;;;10450938;28;20226;-71
2022/05/30 15:18:34;;;;;;;1.20;0.83;;;20.90;46.70;;;;;;10458252;28;20226;-71
2022/05/30 15:23:35;;;;;;;1.77;1.00;;;21.30;46.30;;;;;;10463406;28;20228;-71
2022/05/30 15:28:36;;;;;;;2.60;1.03;;;21.30;45.30;;;;;;10462107;28;20266;-71
2022/05/30 15:33:37;;;;;;;1.57;0.83;;;21.30;45.10;;;;;;10473523;28;20224;-71
2022/05/30 15:38:37;;;;;;;2.73;1.07;;;21.30;45.60;;;;;;10476548;28;20612;-72
2022/05/30 15:43:38;;;;;;;2.47;0.80;;;21.30;46.40;;;;;;10468751;28;20234;-72
2022/05/30 15:48:40;;;;;;;1.17;0.80;;;21.20;47.30;;;;;;10466792;28;20247;-70
2022/05/30 15:59:08;;;;;;;2.50;0.90;;;20.60;48.40;;;;;;10471095;28;20224;-70
2022/05/30 16:04:09;;;;;;;1.63;0.90;;;20.00;49.10;;;;;;10463584;28;20224;-71
2022/05/30 16:09:11;;;;;;;1.33;1.03;;;19.80;49.80;;;;;;10477614;28;20267;-71
2022/05/30 16:14:12;;;;;;;1.17;0.93;;;19.90;48.80;;;;;;10478813;28;20227;-70
2022/05/30 16:19:13;;;;;;;1.73;0.83;;;20.10;48.80;;;;;;10470740;28;20227;-70
2022/05/30 16:24:13;;;;;;;0.90;0.90;;;20.10;48.70;;;;;;10470279;28;20257;-70
2022/05/30 16:29:14;;;;;;;2.10;0.97;;;20.00;48.20;;;;;;10470316;28;20212;-71
2022/05/30 16:34:18;;;;;;;1.47;0.70;;;19.90;48.90;;;;;;10476507;28;20319;-70
2022/05/30 16:39:19;;;;;;;2.60;0.97;;;19.70;49.60;;;;;;10470318;28;20303;-72
2022/05/30 16:44:25;;;;;;;1.10;0.80;;;19.70;49.10;;;;;;10476658;28;20333;-71
2022/05/30 16:49:29;;;;;;;1.60;0.90;;;19.70;49.00;;;;;;10472516;28;20297;-70
2022/05/30 16:54:30;;;;;;;3.23;1.47;;;19.70;48.80;;;;;;10471661;28;20222;-70
2022/05/30 16:59:30;;;;;;;2.00;0.90;;;19.70;51.20;;;;;;10462786;28;20233;-71
2022/05/30 17:04:31;;;;;;;3.30;1.20;;;19.50;51.90;;;;;;10472896;28;20314;-71
2022/05/30 17:09:33;;;;;;;3.00;1.40;;;19.10;53.20;;;;;;10468491;28;20657;-71
2022/05/30 17:14:35;;;;;;;1.50;1.07;;;18.80;53.30;;;;;;10466467;28;20227;-71
2022/05/30 17:19:36;;;;;;;2.40;1.20;;;18.70;54.00;;;;;;10471105;28;20309;-71
2022/05/30 17:24:36;;;;;;;1.83;1.17;;;18.60;53.90;;;;;;10470866;28;20267;-71
2022/05/30 17:29:38;;;;;;;1.80;1.00;;;18.50;53.90;;;;;;10472364;28;20623;-70
2022/05/30 17:34:39;;;;;;;1.60;0.90;;;18.30;54.20;;;;;;10475050;28;20773;-71
2022/05/30 17:39:40;;;;;;;5.23;1.40;;;18.20;54.90;;;;;;10473814;28;20218;-71
2022/05/30 17:44:40;;;;;;;3.50;1.10;;;18.10;55.10;;;;;;10467058;28;20589;-71
2022/05/30 17:50:04;;;;;;;2.13;1.00;;;18.00;55.10;;;;;;10462337;28;20230;-70
2022/05/30 17:55:07;;;;;;;5.93;1.20;;;17.90;54.80;;;;;;10475931;28;20220;-72
2022/05/30 18:00:13;;;;;;;3.37;1.70;;;17.80;55.50;;;;;;10452939;28;20186;-72
2022/05/30 18:05:15;;;;;;;2.93;1.60;;;17.80;55.70;;;;;;10473353;28;20688;-71
2022/05/30 18:10:32;;;;;;;2.03;1.30;;;17.70;56.80;;;;;;10474496;28;20586;-71
2022/05/30 18:15:55;;;;;;;2.87;1.20;;;17.50;58.50;;;;;;10472431;28;20303;-72
2022/05/30 18:21:12;;;;;;;2.60;1.23;;;17.30;59.10;;;;;;10474314;28;20232;-71
2022/05/30 18:26:14;;;;;;;4.90;1.43;;;17.20;59.50;;;;;;10461502;28;20230;-73
2022/05/30 18:31:43;;;;;;;2.00;1.43;;;17.10;59.90;;;;;;10475533;28;20705;-73
2022/05/30 18:36:53;;;;;;;3.13;1.93;;;16.90;59.60;;;;;;10465519;28;20276;-72
2022/05/30 18:42:11;;;;;;;1.63;1.40;;;16.80;61.00;;;;;;10475065;28;20227;-71
2022/05/30 18:47:30;;;;;;;2.97;1.43;;;16.60;61.90;;;;;;10464913;28;20262;-71
2022/05/30 18:52:32;;;;;;;4.80;1.80;;;16.50;61.30;;;;;;10461357;28;20271;-71
2022/05/30 18:57:42;;;;;;;3.23;1.67;;;16.40;61.30;;;;;;10463290;28;20227;-71
2022/05/30 19:02:47;;;;;;;1.50;1.40;;;16.30;61.90;;;;;;10474517;28;20257;-70
2022/05/30 19:07:49;;;;;;;2.10;1.40;;;16.20;62.90;;;;;;10472490;28;20226;-71
2022/05/30 19:12:57;;;;;;;4.70;1.87;;;16.10;63.70;;;;;;10472803;28;20665;-72
2022/05/30 19:18:10;;;;;;;3.80;1.50;;;15.90;65.00;;;;;;10475040;28;20596;-74
2022/05/30 19:23:11;;;;;;;5.97;2.03;;;15.80;66.10;;;;;;10458299;28;20227;-74
2022/05/30 19:28:16;;;;;;;5.27;2.63;;;15.60;66.80;;;;;;10482941;28;20689;-75
2022/05/30 19:33:18;;;;;;;8.23;2.57;;;15.50;67.60;;;;;;10475279;28;20223;-74
2022/05/30 19:38:19;;;;;;;8.40;3.87;;;15.40;67.90;;;;;;10480517;28;20227;-73
2022/05/30 19:43:21;;;;;;;7.23;3.30;;;15.30;68.10;;;;;;10478668;28;20230;-74
2022/05/30 19:48:22;;;;;;;6.77;2.00;;;15.20;68.40;;;;;;10480141;28;20268;-72
2022/05/30 19:53:23;;;;;;;3.67;1.47;;;15.10;69.40;;;;;;10480902;28;20259;-71
2022/05/30 19:58:24;;;;;;;2.53;1.40;;;14.90;70.10;;;;;;10473529;28;20219;-73
2022/05/30 20:03:24;;;;;;;2.17;1.27;;;14.80;70.60;;;;;;10478818;28;20230;-73
2022/05/30 20:08:25;;;;;;;3.07;1.63;;;14.60;71.10;;;;;;10458157;28;20226;-73
2022/05/30 20:13:26;;;;;;;6.70;2.53;;;14.50;72.20;;;;;;10455581;28;20226;-73
2022/05/30 20:18:27;;;;;;;12.07;4.73;;;14.40;72.50;;;;;;10452295;28;20219;-73
2022/05/30 20:23:28;;;;;;;8.37;3.13;;;14.40;73.00;;;;;;10452780;28;20220;-73
2022/05/30 20:28:28;;;;;;;4.90;2.23;;;14.40;74.00;;;;;;10459848;28;20214;-72
2022/05/30 20:33:31;;;;;;;6.10;2.90;;;14.30;73.40;;;;;;10476667;28;20226;-73
2022/05/30 20:38:32;;;;;;;3.33;1.73;;;14.30;73.90;;;;;;10475689;28;20231;-72
2022/05/30 20:43:35;;;;;;;2.80;1.60;;;14.10;74.20;;;;;;10474916;28;20594;-72
2022/05/30 20:48:36;;;;;;;2.17;1.33;;;14.00;74.80;;;;;;10472686;28;20246;-72
2022/05/30 20:53:38;;;;;;;3.87;1.50;;;14.00;75.20;;;;;;10477322;28;20261;-75
2022/05/30 20:58:42;;;;;;;1.83;1.40;;;13.90;75.50;;;;;;10474913;28;20247;-72
2022/05/30 21:03:44;;;;;;;3.90;1.50;;;13.90;76.00;;;;;;10472955;28;20227;-72
2022/05/30 21:08:44;;;;;;;2.40;1.70;;;13.70;76.10;;;;;;10478137;28;20212;-74
2022/05/30 21:13:48;;;;;;;4.90;1.43;;;13.70;76.40;;;;;;10470627;28;20219;-74
2022/05/30 21:19:00;;;;;;;1.73;1.60;;;13.60;76.70;;;;;;10472400;28;20695;-73
2022/05/30 21:24:01;;;;;;;2.07;1.57;;;13.60;76.90;;;;;;10475998;28;20575;-71
2022/05/30 21:29:02;;;;;;;4.33;1.60;;;13.50;77.30;;;;;;10469681;28;20212;-73
2022/05/30 21:34:12;;;;;;;3.20;1.50;;;13.40;77.60;;;;;;10477052;28;20224;-72
2022/05/30 21:39:13;;;;;;;1.90;1.60;;;13.30;78.00;;;;;;10460335;28;20222;-72
2022/05/30 21:44:14;;;;;;;2.80;1.43;;;13.30;78.60;;;;;;10475765;28;20234;-72
2022/05/30 21:49:14;;;;;;;5.30;1.57;;;13.20;79.30;;;;;;10475364;28;20222;-73
2022/05/30 21:54:15;;;;;;;3.03;1.70;;;13.20;80.20;;;;;;10474712;28;20222;-72
2022/05/30 21:59:16;;;;;;;4.73;1.70;;;13.20;80.50;;;;;;10457974;28;20246;-72
2022/05/30 22:04:17;;;;;;;2.37;1.93;;;13.10;80.80;;;;;;10467201;28;20262;-71
2022/05/30 22:09:18;;;;;;;4.50;2.00;;;13.00;81.30;;;;;;10470725;28;20215;-72
2022/05/30 22:14:19;;;;;;;3.50;1.43;;;13.00;82.40;;;;;;10474205;28;20693;-72
2022/05/30 22:19:20;;;;;;;2.07;1.40;;;13.00;82.80;;;;;;10475192;28;20221;-73
2022/05/30 22:24:37;;;;;;;5.23;1.60;;;13.00;83.30;;;;;;10470015;28;20573;-72
2022/05/30 22:29:39;;;;;;;1.70;1.53;;;12.90;83.80;;;;;;10472452;28;20269;-73
2022/05/30 22:34:39;;;;;;;3.33;1.63;;;12.80;84.30;;;;;;10469943;28;20219;-72
2022/05/30 22:39:40;;;;;;;4.30;2.00;;;12.80;85.00;;;;;;10472051;28;20227;-72
2022/05/30 22:44:40;;;;;;;2.67;1.70;;;12.70;85.60;;;;;;10482671;28;20691;-73
2022/05/30 22:49:41;;;;;;;4.20;1.70;;;12.60;86.10;;;;;;10469282;28;20211;-72
2022/05/30 22:54:42;;;;;;;3.30;1.70;;;12.60;86.70;;;;;;10483298;28;20250;-72
2022/05/30 22:59:43;;;;;;;3.20;1.70;;;12.50;87.60;;;;;;10459644;28;20281;-71
2022/05/30 23:04:43;;;;;;;3.73;1.90;;;12.40;88.60;;;;;;10465913;28;20224;-72
2022/05/30 23:09:44;;;;;;;2.00;1.30;;;12.40;89.30;;;;;;10472351;28;20207;-72
2022/05/30 23:14:45;;;;;;;4.23;1.83;;;12.30;90.40;;;;;;10470226;28;20218;-71
2022/05/30 23:19:50;;;;;;;4.10;1.67;;;12.20;90.40;;;;;;10464564;28;20297;-71
2022/05/30 23:24:54;;;;;;;2.70;1.70;;;12.10;90.80;;;;;;10470199;28;20235;-71
2022/05/30 23:29:55;;;;;;;2.10;1.50;;;12.10;91.20;;;;;;10467916;28;20699;-71
2022/05/30 23:34:56;;;;;;;4.17;1.87;;;12.10;91.80;;;;;;10488000;28;20601;-71
2022/05/30 23:39:56;;;;;;;5.03;1.70;;;12.00;92.30;;;;;;10473529;28;20223;-71
2022/05/30 23:44:58;;;;;;;5.43;1.80;;;11.90;92.90;;;;;;10464132;28;20234;-72
2022/05/30 23:49:59;;;;;;;3.40;1.60;;;11.90;93.40;;;;;;10463280;28;20310;-74
2022/05/30 23:55:00;;;;;;;2.77;1.93;;;11.80;94.20;;;;;;10477695;28;20694;-72
